Time;durP1;ratioP1;P1;durP2;ratioP2;P2;SDS_P1;SDS_P2;PMS_P1;PMS_P2;Temp;Humidity;BMP_temperature;BMP_pressure;BME280_temperature;BME280_humidity;BME280_pressure;Samples;Min_cycle;Max_cycle;Signal;HPM_P1;HPM_P2
2022/06/07 00:01:08;;;;;;;4.03;2.60;;;26.10;62.60;;;;;;5054073;28;20020;-77
2022/06/07 00:03:34;;;;;;;4.68;2.83;;;26.10;62.60;;;;;;5053909;28;20024;-77
2022/06/07 00:06:00;;;;;;;6.38;3.00;;;26.10;62.50;;;;;;5052917;28;20028;-78
2022/06/07 00:08:26;;;;;;;4.13;3.10;;;26.20;62.40;;;;;;5047045;28;20029;-77
2022/06/07 00:10:52;;;;;;;6.25;3.50;;;26.10;62.50;;;;;;5048403;28;20049;-78
2022/06/07 00:13:18;;;;;;;3.97;3.13;;;26.10;62.50;;;;;;5053629;28;20037;-77
2022/06/07 00:15:45;;;;;;;4.20;3.00;;;26.00;62.40;;;;;;5053672;28;20055;-76
2022/06/07 00:18:12;;;;;;;6.00;3.35;;;26.00;62.40;;;;;;5051853;28;20451;-77
2022/06/07 00:20:39;;;;;;;4.50;3.30;;;25.90;62.80;;;;;;5053388;28;20040;-76
2022/06/07 00:23:09;;;;;;;5.75;3.30;;;25.90;62.70;;;;;;5052680;28;21901;-77
2022/06/07 00:25:35;;;;;;;4.38;3.00;;;26.00;62.50;;;;;;5052369;28;20033;-76
2022/06/07 00:28:01;;;;;;;5.38;3.00;;;25.90;62.40;;;;;;5054606;28;20025;-77
2022/06/07 00:30:28;;;;;;;4.10;2.67;;;25.90;62.60;;;;;;5053463;28;20033;-77
2022/06/07 00:32:54;;;;;;;3.83;2.50;;;25.90;62.40;;;;;;5052602;28;20095;-80
2022/06/07 00:35:21;;;;;;;4.53;3.25;;;25.70;62.80;;;;;;5052174;28;20044;-78
2022/06/07 00:37:47;;;;;;;4.13;3.00;;;25.60;63.20;;;;;;5051271;28;20108;-77
2022/06/07 00:40:14;;;;;;;4.57;3.00;;;25.60;63.20;;;;;;5053174;28;20029;-77
2022/06/07 00:42:41;;;;;;;3.67;3.00;;;25.70;63.10;;;;;;5053298;28;20030;-78
2022/06/07 00:45:19;;;;;;;4.22;3.25;;;25.70;62.80;;;;;;5052017;28;20025;-77
2022/06/07 00:47:45;;;;;;;5.47;3.42;;;25.80;62.70;;;;;;5053006;28;20025;-77
2022/06/07 00:50:36;;;;;;;6.68;3.40;;;25.80;62.60;;;;;;5050882;28;20020;-76
2022/06/07 00:53:03;;;;;;;4.82;3.05;;;25.60;62.70;;;;;;5051515;28;20387;-78
2022/06/07 00:55:29;;;;;;;4.07;3.08;;;25.60;62.90;;;;;;5042996;28;20045;-77
2022/06/07 00:57:55;;;;;;;3.70;2.90;;;25.50;63.20;;;;;;5054158;28;20088;-76
2022/06/07 01:00:23;;;;;;;4.10;3.10;;;25.40;63.40;;;;;;5036973;28;20411;-77
2022/06/07 01:02:49;;;;;;;4.38;2.95;;;25.40;63.50;;;;;;5050107;28;20029;-77
2022/06/07 01:05:15;;;;;;;4.07;2.90;;;25.40;63.70;;;;;;5052009;28;20138;-77
2022/06/07 01:10:44;;;;;;;6.40;3.20;;;25.30;64.00;;;;;;5050005;28;20048;-77
2022/06/07 01:13:15;;;;;;;4.15;3.03;;;25.20;64.30;;;;;;5050794;28;20201;-83
2022/06/07 01:15:42;;;;;;;;;;;24.90;65.20;;;;;;5051148;28;20045;-76
2022/06/07 01:18:07;;;;;;;3.65;2.60;;;24.70;66.40;;;;;;5050756;28;20326;-77
2022/06/07 01:20:33;;;;;;;4.65;2.83;;;24.80;66.20;;;;;;5049970;28;20043;-79
2022/06/07 01:22:59;;;;;;;6.18;2.88;;;24.60;66.60;;;;;;5051718;28;20118;-76
2022/06/07 01:25:25;;;;;;;3.90;2.70;;;24.60;67.20;;;;;;5050277;28;20047;-81
2022/06/07 01:27:50;;;;;;;4.47;2.85;;;24.60;67.00;;;;;;5051521;28;20025;-75
2022/06/07 01:30:16;;;;;;;3.58;2.40;;;24.60;66.70;;;;;;5050996;28;20375;-76
2022/06/07 01:32:42;;;;;;;3.75;2.95;;;24.60;66.40;;;;;;5068312;28;20066;-77
2022/06/07 01:35:08;;;;;;;4.28;2.90;;;24.80;66.20;;;;;;5058936;28;20442;-75
2022/06/07 01:37:34;;;;;;;3.78;2.80;;;24.90;65.90;;;;;;5043797;28;20371;-77
2022/06/07 01:42:49;;;;;;;6.13;2.80;;;25.00;65.60;;;;;;5010885;28;20048;-86
2022/06/07 01:45:15;;;;;;;4.53;2.78;;;24.90;65.70;;;;;;5010326;28;20030;-79
2022/06/07 01:47:40;;;;;;;3.70;2.90;;;24.70;66.70;;;;;;5000469;28;20420;-77
2022/06/07 01:50:08;;;;;;;4.53;2.90;;;24.60;66.40;;;;;;5005081;28;20100;-78
2022/06/07 01:52:36;;;;;;;4.30;3.13;;;24.30;66.80;;;;;;4994015;28;20040;-78
2022/06/07 01:55:04;;;;;;;5.20;2.80;;;24.00;68.00;;;;;;4999640;28;20041;-78
2022/06/07 01:57:30;;;;;;;5.35;3.25;;;23.90;68.80;;;;;;5010826;28;20030;-78
2022/06/07 01:59:57;;;;;;;4.45;2.90;;;24.20;68.00;;;;;;4994766;28;20581;-79
2022/06/07 02:02:24;;;;;;;4.03;3.10;;;24.30;67.30;;;;;;4993174;28;20034;-78
2022/06/07 02:04:51;;;;;;;5.38;3.13;;;24.40;67.30;;;;;;4994399;28;20033;-82
2022/06/07 02:07:19;;;;;;;4.93;2.90;;;24.50;67.10;;;;;;4993344;28;20022;-76
2022/06/07 02:09:45;;;;;;;4.32;2.75;;;24.60;67.10;;;;;;4999615;28;20390;-75
2022/06/07 02:12:11;;;;;;;3.95;2.95;;;24.70;66.70;;;;;;5006869;28;20551;-85
2022/06/07 02:14:39;;;;;;;3.85;3.00;;;24.80;66.80;;;;;;4979622;28;20038;-78
2022/06/07 02:17:05;;;;;;;4.93;2.95;;;24.70;67.00;;;;;;5002246;28;20030;-77
2022/06/07 02:19:31;;;;;;;4.07;2.90;;;24.80;66.80;;;;;;5010830;28;20480;-78
2022/06/07 02:21:57;;;;;;;4.60;3.05;;;25.00;66.30;;;;;;5046546;28;20036;-77
2022/06/07 02:24:23;;;;;;;4.22;3.25;;;25.20;65.90;;;;;;5051980;28;20163;-78
2022/06/07 02:26:50;;;;;;;4.10;3.10;;;25.20;65.70;;;;;;5051170;28;20463;-79
2022/06/07 02:29:21;;;;;;;4.93;3.10;;;24.90;66.20;;;;;;5050742;28;20028;-77
2022/06/07 02:31:58;;;;;;;4.40;3.08;;;24.90;66.30;;;;;;5049738;28;20035;-76
2022/06/07 02:34:24;;;;;;;5.35;3.25;;;24.80;66.40;;;;;;5050466;28;20391;-74
2022/06/07 02:36:53;;;;;;;4.38;2.92;;;24.60;66.80;;;;;;5051690;28;20037;-78
2022/06/07 02:39:19;;;;;;;4.43;3.20;;;24.80;66.60;;;;;;5051886;28;20043;-78
2022/06/07 02:41:46;;;;;;;4.53;3.30;;;24.90;66.30;;;;;;5050287;28;20150;-76
2022/06/07 02:44:12;;;;;;;5.70;3.28;;;24.90;66.40;;;;;;5050833;28;20025;-78
2022/06/07 02:46:38;;;;;;;4.68;2.90;;;24.80;66.10;;;;;;5051090;28;20032;-78
2022/06/07 02:49:04;;;;;;;4.20;3.22;;;24.70;66.20;;;;;;5051835;28;20523;-74
2022/06/07 02:51:29;;;;;;;4.13;3.33;;;24.70;66.60;;;;;;5050772;28;20534;-76
2022/06/07 02:53:56;;;;;;;3.70;2.80;;;24.40;67.00;;;;;;5055044;28;20021;-76
2022/06/07 02:56:22;;;;;;;7.80;3.70;;;24.20;67.50;;;;;;5055245;28;20032;-77
2022/06/07 02:58:48;;;;;;;4.57;3.38;;;24.20;67.60;;;;;;5054613;28;20025;-80
2022/06/07 03:01:14;;;;;;;4.40;2.90;;;24.30;67.60;;;;;;5053170;28;20039;-84
2022/06/07 03:03:40;;;;;;;4.00;2.90;;;24.30;67.50;;;;;;5055922;28;20017;-80
2022/06/07 03:06:06;;;;;;;4.93;3.40;;;24.40;67.50;;;;;;5055267;28;20025;-76
2022/06/07 03:08:32;;;;;;;4.18;2.83;;;24.00;68.60;;;;;;5055535;28;20025;-92
2022/06/07 03:10:58;;;;;;;4.00;3.10;;;23.90;68.60;;;;;;5054143;28;20332;-85
2022/06/07 03:13:24;;;;;;;4.45;2.90;;;23.80;69.00;;;;;;5054440;28;20024;-84
2022/06/07 03:15:52;;;;;;;5.50;3.40;;;23.80;68.90;;;;;;5054787;28;20037;-76
2022/06/07 03:18:18;;;;;;;5.88;3.58;;;23.90;68.90;;;;;;5055799;28;20084;-81
2022/06/07 03:20:45;;;;;;;4.13;3.15;;;23.90;68.70;;;;;;5052276;28;20397;-83
2022/06/07 03:23:11;;;;;;;4.75;3.30;;;23.90;69.10;;;;;;5054740;28;20591;-77
2022/06/07 03:25:37;;;;;;;4.07;2.92;;;24.00;68.90;;;;;;5053442;28;20024;-88
2022/06/07 03:28:03;;;;;;;4.93;3.40;;;24.10;68.30;;;;;;5054818;28;20510;-91
2022/06/07 03:30:29;;;;;;;4.78;3.25;;;24.00;68.60;;;;;;5086326;28;20036;-76
2022/06/07 03:32:55;;;;;;;4.40;3.05;;;24.10;68.70;;;;;;5055682;28;20030;-86
2022/06/07 03:35:20;;;;;;;4.63;2.92;;;24.10;68.60;;;;;;5054589;28;20621;-91
2022/06/07 03:37:46;;;;;;;4.35;3.20;;;24.10;69.10;;;;;;5054688;28;20020;-78
2022/06/07 03:40:14;;;;;;;4.10;3.10;;;24.30;68.50;;;;;;5053469;28;20025;-80
2022/06/07 03:42:40;;;;;;;6.00;3.08;;;24.50;68.30;;;;;;5053819;28;20028;-81
2022/06/07 03:45:06;;;;;;;5.38;3.00;;;24.40;67.90;;;;;;5055182;28;20025;-89
2022/06/07 03:47:34;;;;;;;3.97;3.13;;;24.50;67.90;;;;;;5052105;28;20039;-77
2022/06/07 03:49:59;;;;;;;4.15;3.10;;;24.50;67.90;;;;;;5053674;28;20025;-77
2022/06/07 03:52:25;;;;;;;4.20;3.00;;;24.70;67.70;;;;;;5055865;28;20020;-78
2022/06/07 03:54:51;;;;;;;5.93;3.40;;;24.60;68.10;;;;;;5043196;28;20029;-81
2022/06/07 03:57:17;;;;;;;3.85;3.00;;;24.60;68.10;;;;;;5054327;28;20558;-84
2022/06/07 03:59:43;;;;;;;4.60;3.17;;;24.70;67.90;;;;;;5053853;28;20021;-76
2022/06/07 04:02:09;;;;;;;4.00;3.10;;;24.90;67.60;;;;;;5052871;28;20040;-78
2022/06/07 04:04:36;;;;;;;4.28;2.92;;;24.80;67.90;;;;;;5051540;28;20021;-77
2022/06/07 04:09:47;;;;;;;4.18;3.15;;;25.30;66.50;;;;;;5054634;28;20490;-77
2022/06/07 04:12:15;;;;;;;4.28;3.13;;;25.60;66.30;;;;;;5052903;28;20029;-78
2022/06/07 04:14:43;;;;;;;5.78;3.08;;;25.80;65.70;;;;;;5053564;28;20379;-77
2022/06/07 04:17:09;;;;;;;5.03;3.60;;;25.90;65.20;;;;;;5054136;28;20051;-76
2022/06/07 04:19:36;;;;;;;4.55;3.70;;;25.90;64.80;;;;;;5052764;28;20025;-77
2022/06/07 04:22:03;;;;;;;4.43;3.40;;;26.00;64.60;;;;;;5053926;28;20028;-77
2022/06/07 04:24:29;;;;;;;6.70;3.30;;;26.10;64.20;;;;;;5053920;28;20071;-83
2022/06/07 04:26:54;;;;;;;5.28;3.53;;;26.10;63.80;;;;;;5053720;28;20028;-88
2022/06/07 04:29:20;;;;;;;5.13;3.65;;;26.10;63.60;;;;;;5050755;28;20026;-81
2022/06/07 04:31:46;;;;;;;4.80;3.65;;;26.00;63.70;;;;;;5053840;28;20067;-80
2022/06/07 04:34:12;;;;;;;4.80;3.70;;;26.00;63.70;;;;;;5050207;28;20031;-75
2022/06/07 04:36:41;;;;;;;6.10;3.55;;;26.20;63.50;;;;;;5045846;28;20047;-77
2022/06/07 04:39:08;;;;;;;5.53;3.55;;;26.20;63.10;;;;;;5052989;28;20013;-80
2022/06/07 04:41:34;;;;;;;4.55;3.50;;;26.30;63.20;;;;;;5068282;28;20032;-77
2022/06/07 04:44:00;;;;;;;4.47;3.13;;;26.30;63.20;;;;;;5052055;28;20052;-80
2022/06/07 04:46:27;;;;;;;4.32;3.30;;;26.30;63.10;;;;;;5051597;28;20028;-78
2022/06/07 04:48:53;;;;;;;3.97;3.05;;;26.50;63.20;;;;;;5048739;28;20498;-79
2022/06/07 04:51:24;;;;;;;4.82;3.47;;;26.60;62.90;;;;;;5045826;28;20027;-76
2022/06/07 04:53:51;;;;;;;3.78;3.00;;;26.30;63.40;;;;;;5052990;28;20025;-76
2022/06/07 04:56:29;;;;;;;4.50;3.28;;;26.20;63.50;;;;;;5044285;28;20064;-82
2022/06/07 04:58:56;;;;;;;3.70;2.90;;;26.30;63.30;;;;;;5041225;28;20021;-77
2022/06/07 05:01:28;;;;;;;7.97;3.13;;;26.30;63.20;;;;;;5043690;28;20021;-76
2022/06/07 05:03:54;;;;;;;4.40;3.10;;;26.60;62.80;;;;;;5041448;28;20017;-80
2022/06/07 05:06:30;;;;;;;4.20;2.86;;;26.90;62.40;;;;;;4539249;28;10002935;-75
2022/06/07 05:08:57;;;;;;;;;;;27.20;61.90;;;;;;5088013;28;20026;-75
2022/06/07 05:11:23;;;;;;;4.10;3.10;;;27.40;61.60;;;;;;5051974;28;19943;-76
2022/06/07 05:13:53;;;;;;;4.63;3.10;;;27.60;61.20;;;;;;5048220;28;20053;-75
2022/06/07 05:16:19;;;;;;;4.72;3.25;;;27.80;61.10;;;;;;5033018;28;20041;-75
2022/06/07 05:18:48;;;;;;;5.43;2.80;;;27.90;61.00;;;;;;5033807;28;20028;-75
2022/06/07 05:21:13;;;;;;;4.85;2.92;;;28.00;60.90;;;;;;5049388;28;20021;-76
2022/06/07 05:23:39;;;;;;;4.75;2.97;;;28.10;60.90;;;;;;5038331;28;20029;-75
2022/06/07 05:26:08;;;;;;;3.78;2.80;;;28.30;60.80;;;;;;5033849;28;20480;-77
2022/06/07 05:28:36;;;;;;;4.57;2.92;;;28.20;61.10;;;;;;5032681;28;20483;-80
2022/06/07 05:31:01;;;;;;;4.00;2.85;;;28.20;61.10;;;;;;5033722;28;20037;-75
2022/06/07 05:33:27;;;;;;;4.00;2.78;;;28.10;61.40;;;;;;5048537;28;20124;-87
2022/06/07 05:35:53;;;;;;;4.20;2.78;;;28.30;61.10;;;;;;5051855;28;20033;-74
2022/06/07 05:38:18;;;;;;;5.63;3.00;;;28.40;61.00;;;;;;5051702;28;20017;-76
2022/06/07 05:40:44;;;;;;;4.68;2.60;;;28.10;61.10;;;;;;5053182;28;20025;-75
2022/06/07 05:43:13;;;;;;;6.25;2.80;;;28.30;60.80;;;;;;5058143;28;20016;-79
2022/06/07 05:45:39;;;;;;;5.32;3.00;;;28.60;60.80;;;;;;5066684;28;20024;-76
2022/06/07 05:48:05;;;;;;;3.40;2.55;;;28.70;60.50;;;;;;5043062;28;20017;-75
2022/06/07 05:50:33;;;;;;;5.15;2.90;;;28.70;60.20;;;;;;5050854;28;20012;-77
2022/06/07 05:52:58;;;;;;;3.92;2.67;;;28.70;60.90;;;;;;5041265;28;20021;-79
2022/06/07 05:55:24;;;;;;;5.50;2.72;;;28.60;60.70;;;;;;5032908;28;20024;-75
2022/06/07 05:57:51;;;;;;;6.15;2.47;;;28.50;60.40;;;;;;5039357;28;20040;-81
2022/06/07 06:00:18;;;;;;;3.45;2.42;;;28.60;61.10;;;;;;5054664;28;20028;-82
2022/06/07 06:02:44;;;;;;;3.90;2.30;;;29.10;60.80;;;;;;5046088;28;20021;-76
2022/06/07 06:05:10;;;;;;;3.70;2.45;;;29.70;59.40;;;;;;5047046;28;20367;-77
2022/06/07 06:10:19;;;;;;;4.18;2.85;;;30.20;59.20;;;;;;5047858;28;20464;-81
2022/06/07 06:10:22;;;;;;;3.33;2.33;;;30.40;58.30;;;;;;5053420;28;20020;-78
2022/06/07 06:12:48;;;;;;;3.47;2.30;;;30.40;57.50;;;;;;5053340;28;20074;-78
2022/06/07 06:15:14;;;;;;;4.25;2.45;;;30.50;57.20;;;;;;5072630;28;20045;-79
2022/06/07 06:17:40;;;;;;;3.20;2.25;;;30.60;57.50;;;;;;5045982;28;20464;-85
2022/06/07 06:20:09;;;;;;;5.32;2.47;;;30.70;56.90;;;;;;5035401;28;20024;-74
2022/06/07 06:22:35;;;;;;;5.00;2.45;;;30.80;57.50;;;;;;5072347;28;20427;-78
2022/06/07 06:25:01;;;;;;;5.68;2.60;;;30.60;57.40;;;;;;5052379;28;20100;-77
2022/06/07 06:27:29;;;;;;;4.65;2.40;;;30.50;57.40;;;;;;5069140;28;20028;-78
2022/06/07 06:29:56;;;;;;;4.68;2.50;;;30.60;56.90;;;;;;5068013;28;20016;-81
2022/06/07 06:32:21;;;;;;;5.50;2.60;;;30.40;57.50;;;;;;5059565;28;20029;-76
2022/06/07 06:34:47;;;;;;;4.00;2.60;;;30.40;57.40;;;;;;5056363;28;20035;-77
2022/06/07 06:37:13;;;;;;;5.57;2.60;;;30.70;57.70;;;;;;5058437;28;20387;-76
2022/06/07 06:39:39;;;;;;;3.40;2.33;;;30.90;57.60;;;;;;5033004;28;20068;-78
2022/06/07 06:42:05;;;;;;;4.65;2.50;;;31.10;57.00;;;;;;5032752;28;20459;-75
2022/06/07 06:44:31;;;;;;;3.45;2.42;;;31.10;57.20;;;;;;5033020;28;20071;-86
2022/06/07 06:46:57;;;;;;;3.75;2.50;;;31.00;56.70;;;;;;5033375;28;20025;-82
2022/06/07 06:49:24;;;;;;;24.58;3.55;;;31.00;56.90;;;;;;5031485;28;20022;-79
2022/06/07 06:51:50;;;;;;;5.30;3.50;;;30.80;57.80;;;;;;5054333;28;20021;-78
2022/06/07 06:54:17;;;;;;;7.25;3.15;;;30.90;57.60;;;;;;5050905;28;20026;-77
2022/06/07 06:56:43;;;;;;;6.80;2.60;;;30.90;58.00;;;;;;5042203;28;20163;-90
2022/06/07 06:59:09;;;;;;;4.03;2.47;;;30.80;57.50;;;;;;5051342;28;20017;-88
2022/06/07 07:01:38;;;;;;;4.00;2.53;;;31.00;58.20;;;;;;5049600;28;20082;-77
2022/06/07 07:04:06;;;;;;;4.43;2.50;;;31.10;57.80;;;;;;5047570;28;20055;-86
2022/06/07 07:06:33;;;;;;;6.27;2.73;;;31.20;57.20;;;;;;4702392;28;10000418;-81
2022/06/07 07:09:00;;;;;;;4.43;2.58;;;30.90;57.30;;;;;;5052079;28;20017;-86
2022/06/07 07:11:35;;;;;;;3.30;2.50;;;31.00;57.40;;;;;;5049871;28;20025;-81
2022/06/07 07:14:02;;;;;;;3.50;2.35;;;31.00;57.50;;;;;;5052315;28;20051;-85
2022/06/07 07:16:33;;;;;;;4.53;2.80;;;31.10;58.70;;;;;;5052739;28;20049;-84
2022/06/07 07:19:00;;;;;;;3.72;2.45;;;31.30;57.80;;;;;;5052458;28;20367;-78
2022/06/07 07:21:33;;;;;;;4.55;2.80;;;31.20;56.80;;;;;;5052297;28;20044;-79
2022/06/07 07:24:00;;;;;;;3.90;2.70;;;31.30;56.70;;;;;;5052880;28;20053;-83
2022/06/07 07:26:28;;;;;;;4.50;2.67;;;31.40;57.80;;;;;;5051354;28;20471;-78
2022/06/07 07:28:54;;;;;;;4.20;2.60;;;31.10;57.20;;;;;;5051580;28;20075;-78
2022/06/07 07:31:23;;;;;;;4.65;2.60;;;31.40;56.90;;;;;;5052484;28;20017;-80
2022/06/07 07:33:50;;;;;;;3.85;2.65;;;31.40;57.90;;;;;;5051023;28;20025;-77
2022/06/07 07:36:16;;;;;;;3.92;2.70;;;31.20;57.90;;;;;;5051738;28;20057;-77
2022/06/07 07:38:42;;;;;;;3.80;2.50;;;31.00;56.80;;;;;;5051771;28;20048;-78
2022/06/07 07:41:35;;;;;;;4.13;2.85;;;30.20;59.30;;;;;;5055765;28;20053;-78
2022/06/07 07:44:04;;;;;;;4.18;2.58;;;29.80;58.70;;;;;;5055241;28;20025;-78
2022/06/07 07:46:32;;;;;;;4.05;2.90;;;29.90;60.60;;;;;;5055867;28;20036;-79
2022/06/07 07:48:58;;;;;;;4.28;2.80;;;29.90;59.10;;;;;;5055922;28;20124;-81
2022/06/07 07:51:36;;;;;;;3.88;2.50;;;30.20;59.50;;;;;;5054155;28;20120;-77
2022/06/07 07:54:04;;;;;;;4.93;3.00;;;30.80;58.90;;;;;;5055227;28;20013;-78
2022/06/07 07:56:30;;;;;;;8.43;2.72;;;31.30;58.50;;;;;;5055188;28;20352;-78
2022/06/07 07:58:58;;;;;;;6.50;2.47;;;31.60;57.10;;;;;;5055262;28;20043;-78
2022/06/07 08:01:27;;;;;;;4.55;2.10;;;31.10;56.10;;;;;;5055073;28;20100;-75
2022/06/07 08:03:57;;;;;;;2.92;2.10;;;31.10;55.70;;;;;;5055281;28;20025;-76
2022/06/07 08:06:24;;;;;;;5.38;2.30;;;30.90;57.20;;;;;;5055169;28;20410;-80
2022/06/07 08:08:53;;;;;;;3.83;2.38;;;30.50;58.50;;;;;;5054973;28;20025;-79
2022/06/07 08:11:23;;;;;;;6.13;2.28;;;30.40;59.30;;;;;;5055317;28;20021;-77
2022/06/07 08:13:49;;;;;;;4.80;2.20;;;30.30;58.50;;;;;;5055153;28;20042;-87
2022/06/07 08:16:15;;;;;;;3.65;2.05;;;30.80;57.70;;;;;;5053574;28;20056;-78
2022/06/07 08:18:41;;;;;;;3.38;1.70;;;30.70;56.40;;;;;;5055013;28;20023;-79
2022/06/07 08:21:20;;;;;;;3.05;2.00;;;30.80;54.70;;;;;;5053608;28;20115;-78
2022/06/07 08:23:47;;;;;;;3.00;1.90;;;31.00;55.40;;;;;;5055037;28;20090;-82
2022/06/07 08:26:13;;;;;;;6.95;2.55;;;31.00;55.60;;;;;;5055459;28;20031;-81
2022/06/07 08:28:40;;;;;;;3.85;1.88;;;30.10;55.90;;;;;;5055090;28;20017;-83
2022/06/07 08:31:30;;;;;;;5.38;2.00;;;29.80;56.10;;;;;;5053980;28;20028;-81
2022/06/07 08:39:25;;;;;;;4.45;1.98;;;30.00;58.70;;;;;;5055334;28;20071;-83
2022/06/07 08:41:59;;;;;;;4.00;1.80;;;31.00;57.30;;;;;;5053909;28;20550;-90
2022/06/07 08:44:42;;;;;;;2.80;1.63;;;31.50;55.50;;;;;;5054437;28;20017;-78
2022/06/07 08:47:26;;;;;;;4.38;1.63;;;31.20;55.20;;;;;;5053367;28;20378;-76
2022/06/07 08:49:58;;;;;;;3.22;1.95;;;31.40;54.00;;;;;;5054437;28;20083;-82
2022/06/07 08:52:28;;;;;;;8.23;1.90;;;31.70;54.30;;;;;;5053311;28;20020;-79
2022/06/07 08:54:58;;;;;;;4.05;1.80;;;32.30;52.90;;;;;;5054417;28;20021;-80
2022/06/07 08:57:30;;;;;;;4.25;1.95;;;32.30;52.20;;;;;;5053413;28;20033;-79
2022/06/07 09:00:06;;;;;;;3.83;1.70;;;31.70;54.10;;;;;;5054704;28;20052;-81
2022/06/07 09:03:08;;;;;;;4.68;1.60;;;30.90;55.20;;;;;;5052832;28;20048;-79
2022/06/07 09:05:34;;;;;;;4.35;1.70;;;31.00;55.00;;;;;;5054245;28;20142;-81
2022/06/07 09:07:59;;;;;;;3.25;1.73;;;30.80;52.80;;;;;;5054558;28;20021;-83
2022/06/07 09:13:17;;;;;;;4.97;1.88;;;31.10;55.50;;;;;;5054896;28;20436;-81
2022/06/07 09:15:49;;;;;;;6.43;1.85;;;31.20;54.30;;;;;;5054275;28;20048;-79
2022/06/07 09:18:17;;;;;;;3.05;1.80;;;30.90;53.70;;;;;;5053065;28;20038;-86
2022/06/07 09:20:48;;;;;;;5.13;2.00;;;31.30;55.70;;;;;;5054054;28;20017;-82
2022/06/07 09:23:34;;;;;;;4.63;1.88;;;31.90;55.60;;;;;;5037727;28;20028;-90
2022/06/07 09:26:22;;;;;;;15.57;2.70;;;32.50;52.50;;;;;;5053130;28;20028;-83
2022/06/07 09:28:48;;;;;;;4.10;2.00;;;30.80;54.50;;;;;;5053770;28;20227;-78
2022/06/07 09:31:21;;;;;;;3.78;2.05;;;30.80;56.00;;;;;;5052644;28;20024;-78
2022/06/07 09:34:06;;;;;;;3.25;1.90;;;31.40;54.70;;;;;;5054065;28;20100;-86
2022/06/07 09:36:38;;;;;;;5.55;1.90;;;32.20;53.80;;;;;;5053073;28;20043;-85
2022/06/07 09:39:19;;;;;;;4.38;2.20;;;32.50;52.90;;;;;;5052654;28;20459;-84
2022/06/07 09:41:54;;;;;;;7.78;1.98;;;32.90;52.00;;;;;;5052415;28;20021;-80
2022/06/07 09:44:24;;;;;;;4.65;1.85;;;33.30;51.60;;;;;;5052581;28;20098;-83
2022/06/07 09:46:50;;;;;;;;;;;32.60;52.50;;;;;;5052983;28;20017;-84
2022/06/07 09:49:44;;;;;;;4.28;1.77;;;31.40;52.90;;;;;;5052712;28;19908;-85
2022/06/07 09:52:13;;;;;;;2.75;1.80;;;31.10;54.30;;;;;;5053768;28;20031;-86
2022/06/07 09:54:43;;;;;;;3.45;2.00;;;31.60;54.60;;;;;;5052188;28;20013;-80
2022/06/07 09:57:41;;;;;;;3.57;2.00;;;31.40;53.70;;;;;;5052045;28;20120;-79
2022/06/07 10:00:39;;;;;;;3.80;2.15;;;31.40;53.50;;;;;;5052538;28;20024;-81
2022/06/07 10:03:14;;;;;;;4.53;1.95;;;31.80;53.00;;;;;;5051723;28;20126;-87
2022/06/07 10:06:04;;;;;;;4.20;2.00;;;31.90;53.60;;;;;;5051575;28;20383;-79
2022/06/07 10:08:37;;;;;;;5.03;2.00;;;32.60;53.40;;;;;;5053279;28;20064;-81
2022/06/07 10:11:06;;;;;;;3.53;2.00;;;33.20;52.30;;;;;;5053531;28;20072;-79
2022/06/07 10:13:51;;;;;;;6.72;2.10;;;33.90;50.90;;;;;;5052179;28;20029;-84
2022/06/07 10:16:31;;;;;;;7.43;2.00;;;33.50;50.60;;;;;;5051912;28;20049;-79
2022/06/07 10:19:25;;;;;;;3.30;1.92;;;32.90;52.60;;;;;;5052162;28;20179;-78
2022/06/07 10:22:02;;;;;;;5.53;2.47;;;32.80;52.50;;;;;;5052136;28;20025;-81
2022/06/07 10:24:48;;;;;;;3.92;2.00;;;32.60;52.20;;;;;;5051840;28;20151;-79
2022/06/07 10:27:33;;;;;;;3.53;1.90;;;33.00;53.80;;;;;;5051694;28;20094;-79
2022/06/07 10:30:22;;;;;;;7.53;2.25;;;32.90;51.90;;;;;;5052688;28;20024;-79
2022/06/07 10:33:06;;;;;;;4.18;1.98;;;32.90;51.80;;;;;;5052978;28;20049;-80
2022/06/07 10:35:39;;;;;;;4.05;1.90;;;33.00;53.00;;;;;;5051706;28;20060;-80
2022/06/07 10:38:35;;;;;;;5.18;2.15;;;32.90;52.40;;;;;;5051880;28;20029;-86
2022/06/07 10:41:20;;;;;;;3.70;2.10;;;33.40;53.70;;;;;;5053022;28;20041;-78
2022/06/07 10:44:18;;;;;;;7.00;2.00;;;33.40;51.70;;;;;;5051780;28;20025;-78
2022/06/07 10:46:46;;;;;;;5.05;1.90;;;33.00;52.60;;;;;;5051578;28;20468;-77
2022/06/07 10:49:34;;;;;;;2.90;1.90;;;32.80;51.90;;;;;;5051646;28;20021;-80
2022/06/07 10:52:44;;;;;;;3.70;2.10;;;33.00;52.50;;;;;;5052400;28;20021;-84
2022/06/07 10:55:14;;;;;;;3.60;2.00;;;33.30;51.30;;;;;;5050960;28;20033;-78
2022/06/07 10:57:55;;;;;;;4.00;2.03;;;33.30;50.50;;;;;;5052547;28;20410;-82
2022/06/07 11:00:36;;;;;;;3.50;2.15;;;33.30;51.10;;;;;;5052482;28;20308;-79
2022/06/07 11:03:19;;;;;;;3.38;2.00;;;33.90;49.40;;;;;;5052626;28;20367;-83
2022/06/07 11:11:35;;;;;;;4.85;2.00;;;33.90;49.50;;;;;;5053130;28;20147;-87
2022/06/07 11:14:37;;;;;;;5.47;2.25;;;33.70;50.10;;;;;;5054139;28;20023;-81
2022/06/07 11:17:18;;;;;;;4.40;2.28;;;32.80;50.20;;;;;;5056201;28;20430;-86
2022/06/07 11:19:44;;;;;;;4.85;2.20;;;32.90;50.60;;;;;;5055411;28;20021;-81
2022/06/07 11:22:19;;;;;;;6.57;2.13;;;32.80;50.00;;;;;;5056391;28;20032;-78
2022/06/07 11:24:59;;;;;;;5.43;2.53;;;32.80;49.70;;;;;;5055093;28;20522;-79
2022/06/07 11:27:27;;;;;;;4.10;1.85;;;32.80;49.70;;;;;;5056186;28;20021;-83
2022/06/07 11:30:21;;;;;;;5.15;2.10;;;33.20;48.80;;;;;;5054919;28;20098;-80
2022/06/07 11:32:49;;;;;;;4.55;1.92;;;33.20;49.30;;;;;;5055604;28;20039;-81
2022/06/07 11:35:46;;;;;;;6.03;1.80;;;32.80;48.80;;;;;;5055205;28;20368;-82
2022/06/07 11:38:17;;;;;;;6.28;2.15;;;32.50;50.70;;;;;;5054601;28;20021;-79
2022/06/07 11:40:45;;;;;;;5.25;2.30;;;32.80;49.10;;;;;;5054647;28;20033;-82
2022/06/07 11:44:05;;;;;;;3.88;2.42;;;32.90;50.80;;;;;;5056054;28;20364;-78
2022/06/07 11:46:33;;;;;;;3.83;2.30;;;32.90;49.50;;;;;;5054324;28;20036;-83
2022/06/07 11:49:28;;;;;;;4.30;2.15;;;33.00;49.80;;;;;;5037196;28;20029;-77
2022/06/07 11:51:55;;;;;;;5.07;2.10;;;33.30;49.40;;;;;;5024466;28;20435;-80
2022/06/07 11:54:38;;;;;;;9.48;2.13;;;32.80;48.80;;;;;;5053986;28;20029;-81
2022/06/07 11:57:31;;;;;;;5.30;2.10;;;32.90;49.80;;;;;;5053233;28;20041;-81
2022/06/07 12:00:03;;;;;;;7.30;2.30;;;33.30;50.20;;;;;;5036968;28;20058;-82
2022/06/07 12:02:36;;;;;;;12.18;2.83;;;33.20;50.00;;;;;;5053460;28;20471;-80
2022/06/07 12:05:07;;;;;;;6.05;2.10;;;33.10;48.40;;;;;;5053581;28;20371;-80
2022/06/07 12:07:48;;;;;;;3.50;1.83;;;32.70;49.00;;;;;;5053208;28;20131;-79
2022/06/07 12:10:16;;;;;;;4.07;1.80;;;32.30;49.20;;;;;;5053191;28;20035;-79
2022/06/07 12:12:53;;;;;;;3.95;1.90;;;32.80;50.20;;;;;;5053335;28;20029;-80
2022/06/07 12:15:37;;;;;;;3.95;2.00;;;33.20;49.20;;;;;;5036390;28;20047;-82
2022/06/07 12:18:26;;;;;;;9.27;2.10;;;32.90;49.10;;;;;;5036740;28;20027;-86
2022/06/07 12:21:00;;;;;;;7.15;1.90;;;32.20;48.50;;;;;;5027115;28;20034;-78
2022/06/07 12:23:42;;;;;;;11.48;2.28;;;32.10;50.10;;;;;;5013977;28;20025;-81
2022/06/07 12:26:29;;;;;;;6.65;2.38;;;32.70;49.80;;;;;;5015095;28;20017;-83
2022/06/07 12:28:56;;;;;;;5.07;2.00;;;32.30;50.10;;;;;;5033246;28;20357;-83
2022/06/07 12:31:30;;;;;;;3.88;2.00;;;32.20;49.40;;;;;;5033259;28;20091;-84
2022/06/07 12:33:59;;;;;;;4.80;1.90;;;32.40;49.30;;;;;;5032583;28;20029;-80
2022/06/07 12:36:31;;;;;;;4.82;2.10;;;33.00;49.80;;;;;;5049734;28;20458;-82
2022/06/07 12:39:01;;;;;;;3.90;2.20;;;32.90;48.70;;;;;;5033034;28;20373;-82
2022/06/07 12:41:31;;;;;;;5.45;2.28;;;32.90;48.40;;;;;;5032918;28;20037;-81
2022/06/07 12:43:59;;;;;;;3.97;2.15;;;32.70;49.70;;;;;;5049764;28;20017;-81
2022/06/07 12:46:44;;;;;;;3.47;2.00;;;32.80;50.20;;;;;;5032845;28;20036;-86
2022/06/07 12:49:21;;;;;;;5.32;2.15;;;32.80;50.10;;;;;;5049598;28;20032;-82
2022/06/07 12:52:00;;;;;;;6.88;2.38;;;32.70;50.20;;;;;;5016120;28;20022;-82
2022/06/07 12:54:28;;;;;;;6.43;2.35;;;32.90;50.10;;;;;;5049236;28;20025;-81
2022/06/07 12:56:56;;;;;;;4.03;2.15;;;33.40;51.40;;;;;;5048890;28;20025;-80
2022/06/07 12:59:36;;;;;;;3.08;2.20;;;33.90;50.80;;;;;;5032236;28;20025;-80
2022/06/07 13:02:15;;;;;;;6.10;2.17;;;34.40;50.90;;;;;;5015836;28;20063;-84
2022/06/07 13:04:50;;;;;;;5.57;1.95;;;34.80;50.30;;;;;;5032325;28;20025;-80
2022/06/07 13:07:26;;;;;;;4.72;1.77;;;35.00;48.70;;;;;;5014717;28;20093;-79
2022/06/07 13:09:58;;;;;;;3.65;1.60;;;35.10;47.30;;;;;;5013457;28;20368;-83
2022/06/07 13:12:32;;;;;;;3.20;2.10;;;35.30;46.80;;;;;;5013594;28;20024;-82
2022/06/07 13:14:59;;;;;;;5.13;1.80;;;35.10;49.00;;;;;;5027710;28;20414;-77
2022/06/07 13:17:35;;;;;;;2.80;1.70;;;35.50;49.00;;;;;;5049602;28;20368;-80
2022/06/07 13:20:04;;;;;;;3.60;1.70;;;35.60;48.90;;;;;;5043094;28;20064;-79
2022/06/07 13:22:36;;;;;;;4.00;1.70;;;35.70;47.60;;;;;;5040240;28;20433;-79
2022/06/07 13:25:18;;;;;;;5.43;1.95;;;35.80;48.40;;;;;;5041930;28;20049;-81
2022/06/07 13:27:52;;;;;;;3.00;1.60;;;35.10;49.40;;;;;;5040133;28;20368;-79
2022/06/07 13:30:21;;;;;;;2.70;1.40;;;34.60;50.10;;;;;;5038343;28;20067;-81